Terminal Aerodrome Forecast
Issued by NWS

Current Version | Previous Version | Graphics & Text | Print | Product List | Glossary On
Versions: 1 2 3 4 5 6 7 8 9 10 11 12 13 14 15 16 17 18 19 20 21
437
FTUS41 KILN 282217 AAA
TAFLCK
TAF AMD
KLCK 282217Z 2822/2918 VRB04KT P6SM VCTS SCT040CB BKN250
      TEMPO 2822/2824 1SM TSRA OVC025CB
     FM290100 03003KT P6SM SCT130 BKN250
     FM291400 04004KT P6SM SCT040=

USA.gov is the U.S. government's official web portal to all federal, state and local government web resources and services.